createdAt,value
2018-02-22T00:00:23.362Z,21.59
2018-02-22T00:02:50.795Z,21.34
2018-02-22T00:05:18.281Z,21.55
2018-02-22T00:07:45.632Z,21.39
2018-02-22T00:10:13.026Z,21.45
2018-02-22T00:12:40.456Z,21.49
2018-02-22T00:15:07.857Z,21.42
2018-02-22T00:17:35.198Z,21.49
2018-02-22T00:20:02.861Z,21.17
2018-02-22T00:22:30.294Z,21.37
2018-02-22T00:24:57.627Z,21.41
2018-02-22T00:27:24.976Z,21.34
2018-02-22T00:29:52.366Z,21.46
2018-02-22T00:32:20.083Z,21.44
2018-02-22T00:34:47.583Z,21.24
2018-02-22T00:37:14.994Z,21.38
2018-02-22T00:39:42.405Z,21.36
2018-02-22T00:42:09.807Z,21.37
2018-02-22T00:44:37.212Z,21.37
2018-02-22T00:47:04.567Z,21.44
2018-02-22T00:49:31.936Z,21.41
2018-02-22T00:51:59.288Z,21.29
2018-02-22T00:54:26.679Z,21.36
2018-02-22T00:56:54.090Z,21.28
2018-02-22T00:59:21.478Z,21.25
2018-02-22T01:01:48.889Z,21.26
2018-02-22T01:04:16.271Z,21.29
2018-02-22T01:06:43.634Z,21.27
2018-02-22T01:09:11.038Z,21.34
2018-02-22T01:11:38.560Z,21.20
2018-02-22T01:14:05.919Z,21.28
2018-02-22T01:16:33.263Z,21.27
2018-02-22T01:19:00.648Z,21.31
2018-02-22T01:21:28.324Z,21.21
2018-02-22T01:23:55.670Z,21.19
2018-02-22T01:26:23.306Z,21.30
2018-02-22T01:28:50.655Z,21.18
2018-02-22T01:31:18.000Z,21.32
2018-02-22T01:33:46.029Z,21.30
2018-02-22T01:36:13.476Z,21.21
2018-02-22T01:38:40.972Z,21.04
2018-02-22T01:41:08.508Z,21.22
2018-02-22T01:43:35.882Z,21.14
2018-02-22T01:46:03.307Z,21.19
2018-02-22T01:48:30.689Z,21.07
2018-02-22T01:50:58.074Z,21.22
2018-02-22T01:53:25.504Z,21.23
2018-02-22T01:55:52.882Z,21.28
2018-02-22T01:58:20.254Z,21.21
2018-02-22T02:00:47.647Z,21.16
2018-02-22T02:03:14.986Z,21.50
2018-02-22T02:05:42.365Z,21.21
2018-02-22T02:08:09.799Z,21.12
2018-02-22T02:10:37.196Z,21.06
2018-02-22T02:13:04.782Z,21.03
2018-02-22T02:15:32.662Z,20.99
2018-02-22T02:18:00.481Z,20.99
2018-02-22T02:20:30.327Z,20.97
2018-02-22T02:22:58.342Z,20.93
2018-02-22T02:25:25.699Z,21.05
2018-02-22T02:27:53.350Z,21.02
2018-02-22T02:30:23.372Z,20.97
2018-02-22T02:32:50.784Z,21.01
2018-02-22T02:35:18.167Z,21.07
2018-02-22T02:37:45.786Z,21.08
2018-02-22T02:40:13.404Z,21.12
2018-02-22T02:42:40.998Z,20.95
2018-02-22T02:45:08.450Z,21.11
2018-02-22T02:47:36.026Z,21.07
2018-02-22T02:50:03.431Z,21.14
2018-02-22T02:52:30.854Z,21.09
2018-02-22T02:54:58.379Z,21.15
2018-02-22T02:57:25.835Z,21.17
2018-02-22T02:59:53.202Z,21.19
2018-02-22T03:02:20.598Z,21.20
2018-02-22T03:04:48.003Z,21.18
2018-02-22T03:07:15.608Z,21.18
2018-02-22T03:09:43.118Z,21.28
2018-02-22T03:12:10.816Z,21.16
2018-02-22T03:14:38.348Z,21.21
2018-02-22T03:17:05.688Z,21.31
2018-02-22T03:19:33.352Z,21.31
2018-02-22T03:22:00.714Z,21.32
2018-02-22T03:24:28.098Z,21.36
2018-02-22T03:26:55.485Z,21.32
2018-02-22T03:29:23.093Z,21.34
2018-02-22T03:31:50.503Z,21.41
2018-02-22T03:34:17.854Z,21.30
2018-02-22T03:36:45.466Z,21.26
2018-02-22T03:39:13.029Z,21.10
2018-02-22T03:41:40.419Z,21.37
2018-02-22T03:44:07.946Z,21.34
2018-02-22T03:46:35.309Z,21.29
2018-02-22T03:49:02.661Z,21.43
2018-02-22T03:51:30.057Z,21.38
2018-02-22T03:53:57.448Z,21.40
2018-02-22T03:56:24.842Z,21.36
2018-02-22T03:58:52.320Z,21.42
2018-02-22T04:01:19.810Z,21.38
2018-02-22T04:03:47.517Z,21.43
2018-02-22T04:06:15.187Z,21.35
2018-02-22T04:08:42.563Z,21.40
2018-02-22T04:11:10.027Z,21.50
2018-02-22T04:13:37.457Z,21.62
2018-02-22T04:16:04.885Z,21.65
2018-02-22T04:18:32.258Z,21.63
2018-02-22T04:20:59.635Z,21.69
2018-02-22T04:23:27.076Z,21.72
2018-02-22T04:25:54.505Z,21.71
2018-02-22T04:28:22.114Z,21.76
2018-02-22T04:30:49.473Z,21.76
2018-02-22T04:33:16.847Z,21.81
2018-02-22T04:35:44.291Z,21.89
2018-02-22T04:38:11.687Z,21.90
2018-02-22T04:40:39.288Z,21.96
2018-02-22T04:43:06.676Z,22.05
2018-02-22T04:45:34.411Z,22.02
2018-02-22T04:48:01.789Z,21.89
2018-02-22T04:50:29.370Z,22.06
2018-02-22T04:52:56.962Z,22.13
2018-02-22T04:55:24.357Z,22.13
2018-02-22T04:57:51.752Z,22.10
2018-02-22T05:00:19.344Z,22.19
2018-02-22T05:02:46.720Z,22.26
2018-02-22T05:05:14.237Z,22.21
2018-02-22T05:07:41.611Z,22.18
2018-02-22T05:10:10.092Z,22.14
2018-02-22T05:12:37.625Z,22.27
2018-02-22T05:15:05.042Z,22.31
2018-02-22T05:17:32.426Z,22.29
2018-02-22T05:19:59.783Z,22.31
2018-02-22T05:22:27.213Z,22.36
2018-02-22T05:24:54.606Z,22.36
2018-02-22T05:27:21.999Z,22.43
2018-02-22T05:29:51.463Z,22.23
2018-02-22T05:32:18.820Z,22.47
2018-02-22T05:34:46.182Z,22.51
2018-02-22T05:37:13.811Z,22.36
2018-02-22T05:39:41.271Z,22.51
2018-02-22T05:42:08.906Z,22.46
2018-02-22T05:44:36.582Z,22.50
2018-02-22T05:47:04.152Z,22.55
2018-02-22T05:49:31.550Z,22.50
2018-02-22T05:51:59.080Z,22.64
2018-02-22T05:54:26.484Z,22.60
2018-02-22T05:56:54.328Z,22.59
2018-02-22T05:59:21.696Z,22.66
2018-02-22T06:01:49.066Z,22.62
2018-02-22T06:04:16.458Z,22.72
2018-02-22T06:06:43.972Z,22.77
2018-02-22T06:09:11.379Z,22.74
2018-02-22T06:11:38.878Z,22.63
2018-02-22T06:14:07.338Z,22.60
2018-02-22T06:16:35.439Z,22.74
2018-02-22T06:19:03.049Z,22.71
2018-02-22T06:21:30.829Z,22.81
2018-02-22T06:23:58.246Z,22.75
2018-02-22T06:26:25.627Z,22.70
2018-02-22T06:28:53.556Z,22.69
2018-02-22T06:31:21.079Z,22.79
2018-02-22T06:33:48.435Z,22.74
2018-02-22T06:36:16.961Z,22.92
2018-02-22T06:38:44.603Z,22.87
2018-02-22T06:41:12.432Z,22.81
2018-02-22T06:43:40.064Z,23.07
2018-02-22T06:46:07.478Z,23.02
2018-02-22T06:48:34.966Z,23.01
2018-02-22T06:51:02.499Z,23.02
2018-02-22T06:53:32.010Z,23.13
2018-02-22T06:55:59.548Z,23.00
2018-02-22T06:58:26.940Z,23.11
2018-02-22T07:01:03.016Z,23.10
2018-02-22T07:03:30.662Z,23.09
2018-02-22T07:05:58.234Z,23.34
2018-02-22T07:08:30.618Z,23.29
2018-02-22T07:10:58.679Z,23.18
2018-02-22T07:13:26.474Z,23.33
2018-02-22T07:15:53.900Z,23.41
2018-02-22T07:18:23.961Z,23.31
2018-02-22T07:20:58.382Z,23.33
2018-02-22T07:23:26.485Z,23.43
2018-02-22T07:25:54.525Z,23.32
2018-02-22T07:28:23.049Z,23.25
2018-02-22T07:30:50.655Z,23.37
2018-02-22T07:33:22.919Z,23.35
2018-02-22T07:38:31.357Z,23.28
2018-02-22T07:41:02.160Z,23.38
2018-02-22T07:43:31.455Z,23.43
2018-02-22T07:45:59.147Z,23.42
2018-02-22T07:48:34.656Z,23.63
2018-02-22T07:51:02.295Z,23.62
2018-02-22T07:53:38.154Z,23.63
2018-02-22T07:56:05.877Z,23.66
2018-02-22T07:58:35.859Z,23.61
2018-02-22T08:01:09.172Z,23.71
2018-02-22T08:03:38.243Z,23.71
2018-02-22T08:06:07.384Z,23.68
2018-02-22T08:08:35.644Z,23.56
2018-02-22T08:11:09.472Z,23.70
2018-02-22T08:13:37.684Z,23.63
2018-02-22T08:16:09.419Z,23.78
2018-02-22T08:18:37.162Z,23.81
2018-02-22T08:21:05.858Z,23.82
2018-02-22T08:23:43.191Z,23.81
2018-02-22T08:26:11.546Z,23.97
2018-02-22T08:28:45.984Z,24.14
2018-02-22T08:31:15.618Z,23.98
2018-02-22T08:33:46.060Z,24.02
2018-02-22T08:36:15.861Z,24.04
2018-02-22T08:38:46.390Z,24.09
2018-02-22T08:43:57.025Z,24.10
2018-02-22T08:46:41.401Z,24.24
2018-02-22T08:49:13.024Z,24.27
2018-02-22T08:51:41.344Z,24.28
2018-02-22T08:54:11.369Z,24.39
2018-02-22T08:56:41.508Z,24.36
2018-02-22T09:09:37.941Z,24.51
2018-02-22T09:12:10.367Z,24.45
2018-02-22T09:14:38.937Z,24.49
2018-02-22T09:17:07.100Z,24.44
2018-02-22T09:19:35.529Z,24.51
2018-02-22T09:22:03.952Z,24.38
2018-02-22T09:24:32.774Z,24.50
2018-02-22T09:27:01.407Z,24.40
2018-02-22T09:29:31.402Z,24.48
2018-02-22T09:32:00.035Z,24.54
2018-02-22T09:40:24.082Z,24.54
2018-02-22T09:42:57.122Z,24.51
2018-02-22T09:48:26.539Z,24.48
2018-02-22T09:50:57.090Z,24.57
2018-02-22T09:53:35.140Z,24.47
2018-02-22T10:27:43.108Z,24.80
2018-02-22T10:45:27.200Z,24.72
2018-02-22T10:47:55.020Z,24.78
2018-02-22T10:50:23.337Z,24.81
2018-02-22T10:53:03.866Z,24.73
2018-02-22T10:55:32.268Z,24.69
2018-02-22T10:58:00.423Z,24.66
2018-02-22T11:00:28.748Z,24.83
2018-02-22T11:03:07.277Z,24.84
2018-02-22T11:05:35.750Z,24.95
2018-02-22T11:08:09.861Z,24.94
2018-02-22T11:10:39.359Z,25.10
2018-02-22T11:13:09.339Z,24.97
2018-02-22T11:15:39.614Z,25.04
2018-02-22T11:18:12.554Z,25.02
2018-02-22T11:20:47.205Z,25.06
2018-02-22T11:25:56.823Z,25.03
2018-02-22T11:31:18.842Z,24.98
2018-02-22T11:33:47.358Z,25.15
2018-02-22T11:36:14.815Z,25.03
2018-02-22T11:38:42.575Z,25.14
2018-02-22T11:41:09.940Z,25.12
2018-02-22T11:43:37.340Z,25.07
2018-02-22T11:46:04.939Z,24.92
2018-02-22T11:48:32.319Z,25.20
2018-02-22T11:50:59.723Z,25.14
2018-02-22T11:53:27.480Z,25.14
2018-02-22T11:55:55.007Z,25.42
2018-02-22T11:58:22.363Z,25.03
2018-02-22T12:00:49.814Z,25.32
2018-02-22T12:03:17.235Z,25.39
2018-02-22T12:05:44.687Z,25.37
2018-02-22T12:08:12.541Z,25.22
2018-02-22T12:10:40.124Z,25.15
2018-02-22T12:13:07.552Z,25.35
2018-02-22T12:15:35.088Z,25.30
2018-02-22T12:18:02.491Z,25.30
2018-02-22T12:20:30.147Z,25.03
2018-02-22T12:22:57.691Z,25.20
2018-02-22T12:25:25.168Z,25.42
2018-02-22T12:27:52.542Z,25.42
2018-02-22T12:30:20.100Z,25.39
2018-02-22T12:32:47.597Z,25.44
2018-02-22T12:35:15.135Z,25.37
2018-02-22T12:37:45.835Z,25.44
2018-02-22T12:40:13.267Z,25.49
2018-02-22T12:42:40.704Z,25.55
2018-02-22T12:45:08.116Z,25.51
2018-02-22T12:47:35.616Z,25.27
2018-02-22T12:50:03.111Z,25.50
2018-02-22T12:52:30.471Z,25.26
2018-02-22T12:54:58.736Z,25.50
2018-02-22T12:57:26.163Z,25.31
2018-02-22T12:59:53.805Z,25.33
2018-02-22T13:02:21.270Z,25.47
2018-02-22T13:04:48.738Z,25.40
2018-02-22T13:07:16.127Z,25.20
2018-02-22T13:09:43.498Z,25.22
2018-02-22T13:12:10.917Z,25.19
2018-02-22T13:14:38.369Z,25.25
2018-02-22T13:17:05.806Z,25.35
2018-02-22T13:19:33.299Z,25.34
2018-02-22T13:22:00.713Z,25.53
2018-02-22T13:24:28.152Z,25.46
2018-02-22T13:26:55.642Z,25.44
2018-02-22T13:29:22.990Z,25.53
2018-02-22T13:31:50.576Z,25.44
2018-02-22T13:34:18.034Z,25.41
2018-02-22T13:36:45.422Z,25.51
2018-02-22T13:39:12.921Z,25.48
2018-02-22T13:41:40.324Z,25.51
2018-02-22T13:44:07.766Z,25.50
2018-02-22T13:46:35.153Z,25.53
2018-02-22T13:49:02.517Z,25.49
2018-02-22T13:51:30.017Z,25.43
2018-02-22T13:53:57.467Z,25.57
2018-02-22T13:56:24.928Z,25.18
2018-02-22T13:58:52.537Z,25.58
2018-02-22T14:01:19.969Z,25.48
2018-02-22T14:03:47.378Z,25.51
2018-02-22T14:06:14.750Z,25.33
2018-02-22T14:08:42.184Z,25.35
2018-02-22T14:11:09.575Z,25.38
2018-02-22T14:13:36.980Z,25.39
2018-02-22T14:16:04.332Z,25.36
2018-02-22T14:18:31.747Z,25.44
2018-02-22T14:20:59.090Z,25.43
2018-02-22T14:23:26.588Z,25.36
2018-02-22T14:25:54.001Z,25.42
2018-02-22T14:28:21.966Z,25.31
2018-02-22T14:30:49.356Z,25.20
2018-02-22T14:33:16.806Z,25.37
2018-02-22T14:35:44.442Z,25.40
2018-02-22T14:38:12.116Z,25.24
2018-02-22T14:40:39.587Z,25.16
2018-02-22T14:43:07.022Z,25.28
2018-02-22T14:45:34.513Z,25.29
2018-02-22T14:48:01.958Z,25.31
2018-02-22T14:50:29.311Z,25.24
2018-02-22T14:52:56.795Z,25.11
2018-02-22T14:55:24.221Z,25.04
2018-02-22T14:57:51.595Z,25.13
2018-02-22T15:00:19.032Z,25.18
2018-02-22T15:02:46.442Z,25.23
2018-02-22T15:05:13.910Z,24.97
2018-02-22T15:07:41.346Z,25.24
2018-02-22T15:10:08.769Z,25.10
2018-02-22T15:12:36.178Z,25.28
2018-02-22T15:15:04.146Z,25.14
2018-02-22T15:17:31.567Z,25.22
2018-02-22T15:19:59.121Z,25.17
2018-02-22T15:22:26.565Z,24.92
2018-02-22T15:24:54.282Z,25.03
2018-02-22T15:27:21.698Z,25.13
2018-02-22T15:29:49.098Z,25.11
2018-02-22T15:32:16.518Z,25.13
2018-02-22T15:34:43.986Z,25.04
2018-02-22T15:37:11.359Z,25.14
2018-02-22T15:39:38.758Z,24.95
2018-02-22T15:42:06.134Z,25.09
2018-02-22T15:44:33.619Z,25.05
2018-02-22T15:47:01.006Z,25.21
2018-02-22T15:49:28.397Z,25.34
2018-02-22T15:51:55.771Z,25.01
2018-02-22T15:54:23.171Z,25.15
2018-02-22T15:56:50.581Z,25.03
2018-02-22T15:59:17.975Z,25.02
2018-02-22T16:01:45.420Z,25.11
2018-02-22T16:04:12.988Z,25.02
2018-02-22T16:06:40.595Z,24.92
2018-02-22T16:09:08.006Z,24.95
2018-02-22T16:11:35.372Z,24.93
2018-02-22T16:14:02.809Z,25.01
2018-02-22T16:16:30.174Z,24.95
2018-02-22T16:18:57.719Z,24.75
2018-02-22T16:21:25.107Z,24.88
2018-02-22T16:23:52.510Z,24.91
2018-02-22T16:26:20.011Z,24.79
2018-02-22T16:28:47.359Z,24.76
2018-02-22T16:31:14.815Z,24.85
2018-02-22T16:33:42.246Z,24.79
2018-02-22T16:36:09.669Z,24.83
2018-02-22T16:38:37.122Z,24.68
2018-02-22T16:41:05.356Z,24.61
2018-02-22T16:43:32.701Z,24.75
2018-02-22T16:46:00.042Z,24.58
2018-02-22T16:48:27.427Z,24.73
2018-02-22T16:50:54.767Z,24.69
2018-02-22T16:53:22.151Z,24.51
2018-02-22T16:55:49.552Z,24.56
2018-02-22T16:58:16.911Z,24.58
2018-02-22T17:00:44.513Z,24.58
2018-02-22T17:03:11.859Z,24.38
2018-02-22T17:05:39.314Z,24.43
2018-02-22T17:08:06.695Z,24.57
2018-02-22T17:10:34.048Z,24.40
2018-02-22T17:13:01.538Z,24.60
2018-02-22T17:15:28.893Z,24.37
2018-02-22T17:17:56.390Z,24.26
2018-02-22T17:20:23.754Z,24.39
2018-02-22T17:22:51.165Z,24.38
2018-02-22T17:25:18.548Z,24.44
2018-02-22T17:27:45.929Z,24.36
2018-02-22T17:30:13.274Z,24.40
2018-02-22T17:32:40.613Z,24.39
2018-02-22T17:35:08.072Z,24.26
2018-02-22T17:37:35.455Z,24.27
2018-02-22T17:40:02.835Z,24.29
2018-02-22T17:42:30.226Z,24.22
2018-02-22T17:44:57.611Z,24.23
2018-02-22T17:47:24.985Z,24.19
2018-02-22T17:49:52.344Z,24.13
2018-02-22T17:52:19.765Z,24.21
2018-02-22T17:54:47.158Z,24.17
2018-02-22T17:57:14.511Z,23.98
2018-02-22T17:59:41.923Z,24.02
2018-02-22T18:02:09.383Z,24.08
2018-02-22T18:04:36.730Z,23.99
2018-02-22T18:07:04.111Z,23.90
2018-02-22T18:09:31.458Z,23.91
2018-02-22T18:11:58.847Z,23.96
2018-02-22T18:14:26.198Z,23.93
2018-02-22T18:16:53.590Z,23.83
2018-02-22T18:19:21.006Z,23.96
2018-02-22T18:21:48.389Z,23.87
2018-02-22T18:24:15.787Z,23.95
2018-02-22T18:26:43.156Z,23.98
2018-02-22T18:29:10.510Z,23.91
2018-02-22T18:31:37.854Z,23.93
2018-02-22T18:34:05.231Z,23.92
2018-02-22T18:36:32.571Z,23.94
2018-02-22T18:38:59.943Z,23.90
2018-02-22T18:41:27.294Z,23.88
2018-02-22T18:43:54.674Z,23.86
2018-02-22T18:46:22.020Z,23.83
2018-02-22T18:48:49.402Z,23.82
2018-02-22T18:51:16.887Z,23.83
2018-02-22T18:53:44.242Z,23.79
2018-02-22T18:56:11.611Z,23.67
2018-02-22T18:58:39.199Z,23.76
2018-02-22T19:01:06.887Z,23.72
2018-02-22T19:03:34.522Z,23.77
2018-02-22T19:06:01.916Z,23.76
2018-02-22T19:08:30.277Z,23.72
2018-02-22T19:10:57.731Z,23.71
2018-02-22T19:13:25.178Z,23.75
2018-02-22T19:15:52.599Z,23.70
2018-02-22T19:18:20.046Z,23.70
2018-02-22T19:20:47.403Z,23.61
2018-02-22T19:23:14.759Z,23.45
2018-02-22T19:25:42.166Z,23.68
2018-02-22T19:28:09.648Z,23.65
2018-02-22T19:30:37.093Z,23.66
2018-02-22T19:33:04.612Z,23.52
2018-02-22T19:35:31.994Z,23.57
2018-02-22T19:37:59.337Z,23.61
2018-02-22T19:40:26.969Z,23.32
2018-02-22T19:42:55.888Z,23.51
2018-02-22T19:45:23.306Z,23.48
2018-02-22T19:47:50.870Z,23.53
2018-02-22T19:50:18.252Z,23.56
2018-02-22T19:52:45.713Z,23.54
2018-02-22T19:55:13.287Z,23.56
2018-02-22T19:57:40.631Z,23.52
2018-02-22T20:00:08.090Z,23.33
2018-02-22T20:02:35.494Z,23.48
2018-02-22T20:05:03.036Z,23.44
2018-02-22T20:07:30.557Z,23.50
2018-02-22T20:09:58.128Z,23.41
2018-02-22T20:12:25.706Z,23.43
2018-02-22T20:14:53.209Z,23.46
2018-02-22T20:17:20.594Z,23.40
2018-02-22T20:19:48.055Z,23.39
2018-02-22T20:22:15.393Z,23.39
2018-02-22T20:24:42.860Z,23.32
2018-02-22T20:27:10.310Z,23.36
2018-02-22T20:29:37.814Z,23.33
2018-02-22T20:32:05.225Z,23.38
2018-02-22T20:34:32.741Z,23.37
2018-02-22T20:37:00.096Z,23.39
2018-02-22T20:39:27.478Z,23.38
2018-02-22T20:41:54.875Z,23.36
2018-02-22T20:44:22.310Z,23.36
2018-02-22T20:46:49.675Z,23.38
2018-02-22T20:49:17.020Z,23.30
2018-02-22T20:51:44.653Z,23.33
2018-02-22T20:54:12.017Z,23.25
2018-02-22T20:56:39.611Z,23.18
2018-02-22T20:59:07.115Z,23.26
2018-02-22T21:01:34.458Z,23.28
2018-02-22T21:04:01.873Z,23.21
2018-02-22T21:06:29.981Z,23.27
2018-02-22T21:08:57.389Z,23.19
2018-02-22T21:11:26.427Z,23.28
2018-02-22T21:13:53.819Z,23.20
2018-02-22T21:16:21.266Z,23.21
2018-02-22T21:18:48.749Z,23.20
2018-02-22T21:21:16.091Z,23.23
2018-02-22T21:23:43.585Z,23.19
2018-02-22T21:26:11.070Z,23.17
2018-02-22T21:28:38.411Z,23.17
2018-02-22T21:31:06.742Z,23.10
2018-02-22T21:33:34.152Z,23.10
2018-02-22T21:36:01.692Z,23.08
2018-02-22T21:38:29.111Z,23.04
2018-02-22T21:40:56.472Z,22.98
2018-02-22T21:43:23.906Z,23.03
2018-02-22T21:45:51.553Z,22.98
2018-02-22T21:48:18.937Z,22.76
2018-02-22T21:50:46.311Z,22.72
2018-02-22T21:53:13.815Z,22.77
2018-02-22T21:55:41.299Z,22.76
2018-02-22T21:58:08.914Z,22.73
2018-02-22T22:00:36.264Z,22.62
2018-02-22T22:03:03.642Z,22.60
2018-02-22T22:05:31.035Z,22.58
2018-02-22T22:07:58.495Z,22.55
2018-02-22T22:10:25.888Z,22.49
2018-02-22T22:12:53.250Z,22.57
2018-02-22T22:15:20.651Z,22.38
2018-02-22T22:17:48.018Z,22.44
2018-02-22T22:20:15.382Z,22.43
2018-02-22T22:22:42.814Z,22.39
2018-02-22T22:25:10.288Z,22.48
2018-02-22T22:27:37.871Z,22.45
2018-02-22T22:30:05.187Z,22.39
2018-02-22T22:32:32.571Z,22.32
2018-02-22T22:34:59.973Z,22.33
2018-02-22T22:37:27.311Z,22.34
2018-02-22T22:39:54.726Z,22.32
2018-02-22T22:42:22.072Z,22.19
2018-02-22T22:44:49.598Z,22.24
2018-02-22T22:47:16.954Z,22.19
2018-02-22T22:49:44.300Z,22.20
2018-02-22T22:52:11.781Z,22.12
2018-02-22T22:54:39.197Z,22.13
2018-02-22T22:57:06.614Z,22.12
2018-02-22T22:59:33.974Z,22.20
2018-02-22T23:02:01.437Z,22.14
2018-02-22T23:04:28.800Z,22.15
2018-02-22T23:06:56.178Z,22.15
2018-02-22T23:09:23.540Z,22.13
2018-02-22T23:11:50.962Z,21.95
2018-02-22T23:14:18.318Z,22.05
2018-02-22T23:16:45.724Z,22.10
2018-02-22T23:19:13.170Z,22.03
2018-02-22T23:21:40.542Z,21.93
2018-02-22T23:24:07.890Z,22.01
2018-02-22T23:26:35.438Z,21.93
2018-02-22T23:29:02.855Z,21.93
2018-02-22T23:31:30.198Z,21.97
2018-02-22T23:33:57.535Z,21.92
2018-02-22T23:36:24.970Z,21.97
2018-02-22T23:38:52.325Z,21.95
2018-02-22T23:41:19.674Z,21.94
2018-02-22T23:43:47.056Z,21.96
2018-02-22T23:46:14.476Z,21.86
2018-02-22T23:48:41.841Z,21.83
2018-02-22T23:51:09.185Z,21.85
2018-02-22T23:53:36.610Z,21.88
2018-02-22T23:56:04.047Z,21.73
2018-02-22T23:58:31.449Z,21.76
